createdAt,value
2019-05-03T00:00:18.394Z,14.17
2019-05-03T00:02:58.038Z,13.37
2019-05-03T00:05:46.539Z,14.47
2019-05-03T00:08:17.148Z,12.70
2019-05-03T00:10:46.624Z,17.10
2019-05-03T00:13:16.002Z,13.83
2019-05-03T00:16:12.093Z,15.10
2019-05-03T00:18:42.190Z,17.20
2019-05-03T00:21:11.823Z,18.17
2019-05-03T00:23:41.815Z,15.67
2019-05-03T00:26:11.987Z,22.17
2019-05-03T00:28:42.651Z,15.17
2019-05-03T00:31:12.487Z,12.17
2019-05-03T00:33:44.153Z,14.53
2019-05-03T00:36:28.517Z,14.40
2019-05-03T00:39:03.229Z,13.50
2019-05-03T00:41:32.533Z,12.90
2019-05-03T00:44:02.274Z,12.43
2019-05-03T00:46:32.758Z,14.17
2019-05-03T00:49:03.857Z,14.40
2019-05-03T00:51:33.190Z,13.17
2019-05-03T00:54:02.488Z,13.30
2019-05-03T00:56:33.543Z,13.93
2019-05-03T00:59:02.890Z,14.37
2019-05-03T01:01:32.309Z,13.20
2019-05-03T01:04:01.891Z,14.07
2019-05-03T01:06:32.706Z,11.93
2019-05-03T01:09:07.003Z,14.23
2019-05-03T01:11:36.464Z,12.90
2019-05-03T01:14:06.176Z,17.23
2019-05-03T01:16:35.429Z,16.50
2019-05-03T01:19:04.894Z,12.87
2019-05-03T01:21:34.211Z,16.63
2019-05-03T01:24:05.080Z,14.40
2019-05-03T01:26:34.420Z,15.13
2019-05-03T01:29:05.086Z,16.20
2019-05-03T01:31:34.349Z,16.87
2019-05-03T01:34:04.926Z,17.20
2019-05-03T01:36:34.186Z,19.03
2019-05-03T01:39:04.608Z,24.87
2019-05-03T01:41:33.969Z,24.93
2019-05-03T01:44:03.443Z,27.07
2019-05-03T01:46:33.172Z,25.37
2019-05-03T01:49:09.150Z,28.30
2019-05-03T01:51:57.428Z,29.20
2019-05-03T01:54:26.899Z,31.10
2019-05-03T01:56:59.120Z,31.27
2019-05-03T01:59:27.343Z,42.63
2019-05-03T02:02:15.848Z,35.87
2019-05-03T02:04:53.359Z,40.07
2019-05-03T02:07:22.814Z,40.73
2019-05-03T02:09:52.378Z,39.30
2019-05-03T02:12:24.650Z,35.70
2019-05-03T02:14:54.093Z,40.10
2019-05-03T02:17:24.140Z,37.67
2019-05-03T02:19:55.573Z,37.63
2019-05-03T02:22:24.936Z,41.67
2019-05-03T02:24:54.393Z,36.93
2019-05-03T02:27:23.701Z,40.60
2019-05-03T02:29:53.083Z,38.93
2019-05-03T02:32:23.288Z,41.50
2019-05-03T02:34:53.627Z,42.10
2019-05-03T02:37:23.111Z,39.97
2019-05-03T02:39:56.775Z,40.13
2019-05-03T02:42:26.619Z,34.73
2019-05-03T02:44:56.641Z,36.23
2019-05-03T02:47:47.168Z,39.73
2019-05-03T02:50:19.580Z,37.63
2019-05-03T02:52:48.913Z,36.60
2019-05-03T02:55:18.387Z,40.33
2019-05-03T02:57:48.113Z,34.33
2019-05-03T03:00:19.305Z,32.33
2019-05-03T03:02:50.795Z,35.80
2019-05-03T03:05:20.266Z,38.47
2019-05-03T03:07:52.075Z,36.33
2019-05-03T03:10:21.429Z,33.10
2019-05-03T03:12:55.361Z,34.00
2019-05-03T03:15:26.128Z,33.80
2019-05-03T03:17:59.279Z,33.60
2019-05-03T03:20:30.442Z,34.47
2019-05-03T03:23:01.003Z,31.57
2019-05-03T03:25:36.187Z,31.20
2019-05-03T03:28:08.674Z,29.03
2019-05-03T03:31:21.068Z,27.20
2019-05-03T03:33:50.494Z,25.23
2019-05-03T03:36:50.420Z,26.37
2019-05-03T03:38:51.247Z,26.00
2019-05-03T03:41:20.899Z,25.63
2019-05-03T03:43:55.780Z,26.07
2019-05-03T03:46:26.994Z,22.30
2019-05-03T03:48:58.292Z,22.03
2019-05-03T03:51:30.413Z,21.20
2019-05-03T03:54:01.557Z,21.03
2019-05-03T03:56:32.429Z,21.37
2019-05-03T03:59:01.696Z,19.00
2019-05-03T04:01:31.094Z,19.23
2019-05-03T04:04:00.547Z,19.17
2019-05-03T04:06:42.539Z,19.00
2019-05-03T04:09:11.838Z,15.23
2019-05-03T04:11:42.347Z,15.10
2019-05-03T04:14:16.085Z,13.73
2019-05-03T04:17:09.535Z,13.83
2019-05-03T04:19:40.642Z,11.27
2019-05-03T04:22:10.004Z,10.80
2019-05-03T04:24:39.375Z,10.90
2019-05-03T04:27:17.994Z,8.03
2019-05-03T04:29:40.878Z,8.23
2019-05-03T04:32:10.511Z,7.13
2019-05-03T04:34:41.930Z,9.03
2019-05-03T04:37:11.375Z,8.47
2019-05-03T04:39:40.752Z,7.03
2019-05-03T04:42:10.757Z,4.73
2019-05-03T04:44:40.077Z,6.73
2019-05-03T04:47:09.458Z,4.23
2019-05-03T04:49:38.779Z,5.87
2019-05-03T04:52:08.179Z,4.53
2019-05-03T04:54:45.200Z,5.37
2019-05-03T04:57:17.610Z,6.67
2019-05-03T04:59:45.430Z,5.20
2019-05-03T05:02:17.165Z,4.97
2019-05-03T05:04:46.582Z,3.37
2019-05-03T05:07:15.969Z,4.00
2019-05-03T05:09:45.805Z,5.30
2019-05-03T05:12:17.272Z,3.17
2019-05-03T05:14:48.379Z,4.00
2019-05-03T05:17:26.340Z,2.73
2019-05-03T05:20:05.428Z,4.63
2019-05-03T05:22:35.030Z,2.50
2019-05-03T05:25:07.899Z,2.93
2019-05-03T05:27:57.216Z,3.07
2019-05-03T05:30:26.641Z,6.10
2019-05-03T05:32:56.119Z,2.90
2019-05-03T05:35:25.494Z,3.60
2019-05-03T05:37:55.022Z,5.27
2019-05-03T05:40:24.650Z,3.77
2019-05-03T05:42:54.622Z,4.80
2019-05-03T05:45:26.900Z,3.43
2019-05-03T05:48:05.036Z,5.50
2019-05-03T05:50:40.374Z,3.70
2019-05-03T05:53:09.749Z,4.67
2019-05-03T05:56:02.631Z,7.83
2019-05-03T05:58:41.370Z,7.90
2019-05-03T06:01:27.054Z,7.20
2019-05-03T06:46:56.210Z,3.23
2019-05-03T06:49:44.824Z,3.40
2019-05-03T06:52:59.716Z,3.10
2019-05-03T06:55:39.845Z,5.53
2019-05-03T06:58:15.304Z,3.30
2019-05-03T07:01:21.793Z,5.23
2019-05-03T07:04:10.802Z,2.40
2019-05-03T07:07:08.325Z,2.70
2019-05-03T07:09:45.851Z,4.33
2019-05-03T07:12:18.329Z,3.13
2019-05-03T07:14:50.541Z,3.23
2019-05-03T07:17:32.204Z,2.17
2019-05-03T07:20:04.653Z,5.07
2019-05-03T07:22:38.498Z,3.67
2019-05-03T07:25:41.216Z,3.93
2019-05-03T07:28:11.120Z,3.20
2019-05-03T07:30:40.478Z,2.83
2019-05-03T07:33:15.146Z,2.20
2019-05-03T07:35:44.560Z,2.77
2019-05-03T07:38:15.516Z,2.13
2019-05-03T07:40:44.983Z,2.67
2019-05-03T07:43:14.913Z,3.00
2019-05-03T07:45:44.859Z,2.00
2019-05-03T07:48:15.064Z,3.70
2019-05-03T07:50:44.781Z,3.37
2019-05-03T07:53:15.049Z,4.43
2019-05-03T07:56:05.376Z,3.37
2019-05-03T07:58:36.847Z,1.60
2019-05-03T08:01:10.261Z,2.03
2019-05-03T08:03:39.614Z,1.93
2019-05-03T08:06:08.979Z,2.97
2019-05-03T08:08:39.438Z,2.27
2019-05-03T08:11:08.962Z,2.60
2019-05-03T08:13:38.307Z,2.97
2019-05-03T08:16:10.800Z,2.47
2019-05-03T08:18:40.117Z,2.93
2019-05-03T08:21:10.042Z,1.80
2019-05-03T08:23:39.433Z,3.00
2019-05-03T08:26:09.459Z,3.17
2019-05-03T08:28:38.861Z,3.60
2019-05-03T08:31:28.139Z,3.13
2019-05-03T08:34:15.147Z,3.93
2019-05-03T08:37:19.094Z,1.93
2019-05-03T08:39:48.818Z,4.47
2019-05-03T08:42:25.352Z,2.27
2019-05-03T08:44:58.156Z,2.57
2019-05-03T08:47:27.845Z,3.13
2019-05-03T08:49:57.271Z,2.33
2019-05-03T08:52:26.658Z,3.50
2019-05-03T08:54:56.151Z,2.83
2019-05-03T08:57:25.632Z,4.40
2019-05-03T08:59:55.816Z,2.50
2019-05-03T09:02:25.814Z,4.37
2019-05-03T09:04:55.444Z,5.13
2019-05-03T09:07:25.449Z,2.80
2019-05-03T09:10:18.347Z,5.53
2019-05-03T09:13:06.506Z,3.67
2019-05-03T09:15:36.987Z,4.47
2019-05-03T09:18:06.378Z,5.10
2019-05-03T09:20:36.026Z,4.30
2019-05-03T09:23:06.085Z,10.20
2019-05-03T09:25:35.839Z,4.73
2019-05-03T09:28:06.499Z,5.37
2019-05-03T09:30:38.079Z,18.30
2019-05-03T09:33:09.121Z,6.83
2019-05-03T09:35:39.988Z,4.47
2019-05-03T09:38:09.420Z,7.73
2019-05-03T09:40:39.126Z,7.80
2019-05-03T09:43:08.382Z,5.93
2019-05-03T09:45:38.023Z,7.30
2019-05-03T09:48:07.649Z,7.33
2019-05-03T09:50:39.878Z,9.27
2019-05-03T09:53:10.142Z,9.28
2019-05-03T09:55:42.575Z,6.72
2019-05-03T09:58:12.355Z,7.07
2019-05-03T10:00:44.618Z,6.10
2019-05-03T10:03:13.938Z,6.77
2019-05-03T10:05:45.853Z,6.42
2019-05-03T10:08:15.723Z,4.72
2019-05-03T10:11:05.280Z,7.60
2019-05-03T10:13:35.471Z,3.67
2019-05-03T10:16:06.878Z,7.27
2019-05-03T10:18:36.453Z,4.07
2019-05-03T10:21:06.090Z,5.60
2019-05-03T10:23:41.802Z,3.83
2019-05-03T10:26:11.313Z,4.50
2019-05-03T10:28:42.432Z,5.50
2019-05-03T10:31:11.771Z,4.27
2019-05-03T10:33:53.341Z,5.37
2019-05-03T10:36:24.770Z,5.90
2019-05-03T10:38:55.396Z,5.63
2019-05-03T10:41:25.174Z,6.33
2019-05-03T10:43:55.699Z,6.53
2019-05-03T10:46:25.674Z,9.80
2019-05-03T10:48:55.831Z,6.27
2019-05-03T10:51:27.460Z,5.70
2019-05-03T10:53:59.294Z,5.17
2019-05-03T10:56:55.480Z,7.50
2019-05-03T10:59:25.014Z,5.27
2019-05-03T11:02:10.350Z,6.37
2019-05-03T11:04:39.606Z,5.15
2019-05-03T11:07:09.126Z,4.40
2019-05-03T11:09:48.539Z,5.60
2019-05-03T11:12:09.457Z,5.80
2019-05-03T11:14:39.997Z,6.40
2019-05-03T11:17:09.837Z,6.85
2019-05-03T11:19:39.317Z,5.22
2019-05-03T11:22:09.235Z,5.83
2019-05-03T11:24:40.136Z,13.03
2019-05-03T11:27:10.891Z,5.92
2019-05-03T11:29:40.738Z,6.92
2019-05-03T11:32:27.144Z,4.28
2019-05-03T11:35:15.904Z,6.87
2019-05-03T11:37:50.041Z,4.05
2019-05-03T11:40:19.478Z,6.03
2019-05-03T11:42:49.788Z,5.55
2019-05-03T11:45:19.961Z,6.33
2019-05-03T11:47:49.425Z,5.87
2019-05-03T11:50:19.002Z,5.65
2019-05-03T11:52:48.382Z,8.23
2019-05-03T11:55:17.674Z,6.90
2019-05-03T11:57:48.674Z,9.53
2019-05-03T12:00:26.808Z,10.83
2019-05-03T12:03:15.649Z,13.23
2019-05-03T12:05:48.936Z,14.70
2019-05-03T12:08:18.422Z,13.13
2019-05-03T12:10:57.170Z,13.77
2019-05-03T12:13:27.024Z,12.17
2019-05-03T12:15:56.512Z,10.90
2019-05-03T12:18:26.587Z,12.60
2019-05-03T12:20:58.133Z,12.50
2019-05-03T12:23:30.883Z,9.80
2019-05-03T12:26:04.292Z,9.43
2019-05-03T12:28:35.265Z,11.10
2019-05-03T12:31:07.358Z,11.20
2019-05-03T12:33:36.850Z,10.00
2019-05-03T12:36:06.603Z,10.43
2019-05-03T12:38:36.233Z,7.30
2019-05-03T12:41:05.866Z,8.33
2019-05-03T12:43:35.585Z,6.80
2019-05-03T12:46:05.253Z,6.53
2019-05-03T12:48:35.557Z,8.65
2019-05-03T12:51:06.606Z,9.20
2019-05-03T12:53:37.630Z,6.70
2019-05-03T12:56:11.460Z,6.43
2019-05-03T12:58:50.767Z,7.83
2019-05-03T13:01:41.912Z,7.37
2019-05-03T13:04:17.237Z,6.17
2019-05-03T13:06:54.936Z,5.58
2019-05-03T13:09:25.174Z,7.40
2019-05-03T13:11:58.907Z,6.70
2019-05-03T13:14:27.001Z,5.53
2019-05-03T13:16:56.406Z,6.83
2019-05-03T13:19:25.837Z,6.87
2019-05-03T13:21:55.672Z,6.00
2019-05-03T13:24:26.278Z,8.13
2019-05-03T13:26:55.743Z,7.30
2019-05-03T13:29:25.653Z,8.80
2019-05-03T13:32:01.671Z,7.95
2019-05-03T13:34:26.553Z,9.83
2019-05-03T13:36:56.800Z,7.40
2019-05-03T13:39:26.617Z,7.50
2019-05-03T13:41:56.351Z,7.20
2019-05-03T13:44:25.638Z,9.43
2019-05-03T13:46:55.300Z,28.77
2019-05-03T13:49:27.754Z,9.17
2019-05-03T13:51:57.226Z,11.40
2019-05-03T13:54:26.840Z,12.60
2019-05-03T13:56:57.052Z,8.23
2019-05-03T13:59:26.519Z,9.83
2019-05-03T14:02:11.226Z,10.17
2019-05-03T14:04:27.609Z,10.45
2019-05-03T14:06:57.247Z,8.73
2019-05-03T14:09:26.607Z,10.38
2019-05-03T14:11:56.835Z,10.23
2019-05-03T14:14:28.984Z,9.33
2019-05-03T14:16:58.338Z,11.13
2019-05-03T14:19:34.733Z,16.70
2019-05-03T14:22:07.285Z,11.18
2019-05-03T14:24:37.926Z,14.25
2019-05-03T14:27:07.272Z,13.10
2019-05-03T14:29:36.670Z,26.07
2019-05-03T14:32:06.082Z,12.58
2019-05-03T14:34:36.109Z,10.70
2019-05-03T14:37:05.731Z,13.55
2019-05-03T14:39:35.095Z,11.57
2019-05-03T14:42:04.809Z,13.25
2019-05-03T14:44:35.757Z,13.25
2019-05-03T14:47:05.823Z,10.72
2019-05-03T14:49:35.305Z,11.85
2019-05-03T14:52:05.546Z,12.53
2019-05-03T14:54:39.910Z,12.50
2019-05-03T14:57:23.150Z,15.40
2019-05-03T15:00:16.829Z,11.40
2019-05-03T15:02:58.748Z,10.80
2019-05-03T15:05:28.196Z,12.43
2019-05-03T15:07:57.609Z,14.23
2019-05-03T15:10:28.244Z,16.57
2019-05-03T15:12:57.670Z,20.83
2019-05-03T15:15:28.842Z,16.03
2019-05-03T15:17:58.651Z,16.47
2019-05-03T15:20:28.123Z,13.43
2019-05-03T15:22:59.958Z,16.73
2019-05-03T15:25:29.565Z,18.73
2019-05-03T15:27:58.903Z,15.37
2019-05-03T15:30:30.489Z,15.60
2019-05-03T15:33:01.024Z,15.60
2019-05-03T15:35:30.798Z,13.53
2019-05-03T15:38:02.173Z,15.57
2019-05-03T15:40:32.887Z,15.30
2019-05-03T15:43:16.744Z,15.13
2019-05-03T15:45:59.867Z,11.70
2019-05-03T15:48:35.127Z,16.43
2019-05-03T15:51:04.886Z,19.93
2019-05-03T15:53:35.341Z,13.83
2019-05-03T15:56:06.542Z,11.80
2019-05-03T15:58:35.931Z,14.40
2019-05-03T16:01:09.566Z,15.43
2019-05-03T16:03:38.655Z,16.30
2019-05-03T16:06:11.170Z,13.20
2019-05-03T16:08:40.449Z,14.07
2019-05-03T16:11:20.325Z,12.67
2019-05-03T16:13:59.147Z,13.03
2019-05-03T16:16:28.811Z,11.57
2019-05-03T16:19:00.470Z,13.33
2019-05-03T16:21:31.081Z,13.30
2019-05-03T16:24:00.584Z,15.07
2019-05-03T16:26:35.501Z,13.83
2019-05-03T16:29:12.446Z,13.60
2019-05-03T16:31:45.031Z,12.67
2019-05-03T16:34:14.636Z,10.83
2019-05-03T16:36:45.526Z,10.30
2019-05-03T16:39:15.456Z,12.63
2019-05-03T16:41:45.145Z,13.80
2019-05-03T16:44:14.641Z,14.77
2019-05-03T16:46:46.150Z,9.60
2019-05-03T16:49:16.028Z,10.20
2019-05-03T16:51:49.206Z,13.07
2019-05-03T16:54:19.218Z,9.77
2019-05-03T16:56:48.909Z,9.50
2019-05-03T16:59:19.379Z,12.70
2019-05-03T17:01:49.991Z,9.77
2019-05-03T17:04:26.756Z,8.10
2019-05-03T17:07:29.017Z,9.20
2019-05-03T17:10:09.251Z,10.83
2019-05-03T17:12:41.870Z,8.17
2019-05-03T17:15:14.334Z,9.77
2019-05-03T17:17:45.170Z,10.20
2019-05-03T17:20:16.578Z,9.23
2019-05-03T17:22:46.177Z,9.60
2019-05-03T17:25:16.898Z,9.10
2019-05-03T17:27:46.489Z,9.90
2019-05-03T17:30:16.111Z,10.53
2019-05-03T17:32:45.602Z,11.90
2019-05-03T17:35:17.401Z,12.37
2019-05-03T17:37:46.905Z,13.07
2019-05-03T17:40:37.601Z,13.93
2019-05-03T17:43:29.147Z,15.60
2019-05-03T17:45:59.566Z,12.23
2019-05-03T17:48:29.217Z,11.07
2019-05-03T17:50:58.741Z,14.50
2019-05-03T17:53:54.745Z,15.83
2019-05-03T17:56:35.152Z,16.33
2019-05-03T17:59:26.323Z,16.70
2019-05-03T18:02:24.613Z,18.20
2019-05-03T18:05:16.593Z,20.83
2019-05-03T18:08:09.514Z,19.60
2019-05-03T18:10:41.207Z,17.27
2019-05-03T18:13:14.356Z,18.53
2019-05-03T18:15:45.009Z,19.63
2019-05-03T18:18:15.855Z,21.23
2019-05-03T18:20:45.192Z,21.00
2019-05-03T18:23:15.395Z,23.13
2019-05-03T18:25:45.034Z,22.97
2019-05-03T18:28:15.338Z,16.87
2019-05-03T18:30:45.462Z,19.93
2019-05-03T18:33:20.015Z,17.60
2019-05-03T18:35:49.681Z,18.30
2019-05-03T18:38:19.981Z,18.47
2019-05-03T18:40:50.220Z,19.47
2019-05-03T18:43:34.495Z,20.97
2019-05-03T18:46:22.072Z,20.13
2019-05-03T18:52:07.727Z,21.73
2019-05-03T18:54:39.008Z,21.57
2019-05-03T18:57:10.324Z,25.47
2019-05-03T18:59:40.776Z,21.13
2019-05-03T19:02:15.597Z,21.80
2019-05-03T19:04:49.490Z,21.37
2019-05-03T19:07:41.191Z,22.50
2019-05-03T19:10:16.714Z,18.80
2019-05-03T19:12:51.402Z,18.90
2019-05-03T19:15:25.159Z,21.00
2019-05-03T19:18:01.555Z,21.80
2019-05-03T19:20:35.383Z,19.37
2019-05-03T19:23:08.418Z,19.00
2019-05-03T19:25:46.931Z,18.30
2019-05-03T19:28:08.801Z,15.90
2019-05-03T19:30:40.514Z,17.47
2019-05-03T19:33:09.863Z,18.37
2019-05-03T19:35:39.183Z,15.57
2019-05-03T19:38:08.778Z,22.03
2019-05-03T19:40:38.087Z,17.57
2019-05-03T19:43:07.494Z,19.93
2019-05-03T19:45:37.183Z,17.53
2019-05-03T19:48:06.668Z,17.07
2019-05-03T19:50:36.637Z,16.80
2019-05-03T19:53:28.095Z,15.93
2019-05-03T19:55:57.531Z,23.97
2019-05-03T19:58:28.105Z,17.53
2019-05-03T20:01:17.011Z,19.87
2019-05-03T20:03:55.723Z,18.33
2019-05-03T20:06:47.616Z,15.93
2019-05-03T20:09:18.575Z,17.37
2019-05-03T20:11:48.896Z,15.50
2019-05-03T20:14:18.749Z,15.50
2019-05-03T20:16:48.203Z,15.77
2019-05-03T20:19:21.064Z,14.97
2019-05-03T20:21:48.545Z,12.77
2019-05-03T20:24:18.088Z,15.90
2019-05-03T20:26:47.453Z,13.30
2019-05-03T20:29:17.000Z,14.33
2019-05-03T20:31:47.260Z,12.43
2019-05-03T20:34:16.863Z,12.83
2019-05-03T20:36:48.824Z,10.93
2019-05-03T20:39:18.263Z,13.00
2019-05-03T20:41:47.686Z,13.30
2019-05-03T20:44:31.306Z,13.53
2019-05-03T20:47:08.840Z,14.10
2019-05-03T20:49:38.579Z,14.53
2019-05-03T20:52:07.970Z,11.70
2019-05-03T20:54:37.213Z,14.60
2019-05-03T20:57:06.717Z,13.10
2019-05-03T20:59:43.042Z,16.93
2019-05-03T21:02:07.312Z,15.57
2019-05-03T21:04:36.797Z,15.30
2019-05-03T21:07:06.141Z,14.27
2019-05-03T21:09:35.667Z,17.20
2019-05-03T21:12:06.567Z,15.37
2019-05-03T21:14:37.130Z,16.93
2019-05-03T21:17:28.629Z,17.57
2019-05-03T21:20:11.542Z,14.57
2019-05-03T21:22:47.328Z,17.27
2019-05-03T21:25:27.365Z,15.03
2019-05-03T21:27:57.886Z,17.47
2019-05-03T21:30:28.198Z,16.17
2019-05-03T21:32:57.568Z,14.07
2019-05-03T21:35:40.926Z,15.63
2019-05-03T21:38:00.814Z,14.20
2019-05-03T21:40:30.318Z,15.53
2019-05-03T21:42:59.967Z,17.93
2019-05-03T21:45:45.318Z,15.87
2019-05-03T21:48:21.485Z,19.43
2019-05-03T21:50:50.994Z,16.27
2019-05-03T21:53:20.705Z,18.17
2019-05-03T21:55:50.200Z,18.67
2019-05-03T22:01:00.786Z,19.97
2019-05-03T22:03:31.679Z,19.97
2019-05-03T22:06:01.207Z,18.03
2019-05-03T22:08:30.590Z,17.00
2019-05-03T22:11:01.421Z,18.17
2019-05-03T22:13:31.055Z,18.73
2019-05-03T22:16:15.515Z,22.17
2019-05-03T22:18:45.889Z,21.53
2019-05-03T22:21:40.410Z,22.40
2019-05-03T22:24:21.434Z,28.10
2019-05-03T22:27:07.292Z,20.23
2019-05-03T22:29:36.711Z,23.23
2019-05-03T22:32:08.134Z,25.37
2019-05-03T22:34:37.397Z,20.33
2019-05-03T22:37:07.133Z,23.70
2019-05-03T22:39:37.717Z,22.23
2019-05-03T22:42:07.080Z,21.20
2019-05-03T22:44:36.629Z,20.17
2019-05-03T22:47:05.975Z,20.73
2019-05-03T22:49:37.348Z,22.07
2019-05-03T22:52:07.231Z,23.73
2019-05-03T22:54:36.573Z,20.40
2019-05-03T22:57:06.023Z,22.67
2019-05-03T22:59:36.402Z,20.40
2019-05-03T23:02:05.732Z,21.17
2019-05-03T23:04:44.865Z,23.00
2019-05-03T23:07:14.882Z,21.20
2019-05-03T23:09:45.198Z,22.53
2019-05-03T23:12:14.771Z,20.13
2019-05-03T23:14:44.668Z,21.67
2019-05-03T23:17:14.978Z,19.73
2019-05-03T23:19:47.127Z,22.33
2019-05-03T23:22:29.146Z,23.20
2019-05-03T23:24:58.531Z,22.87
2019-05-03T23:27:27.954Z,22.93
2019-05-03T23:29:59.739Z,21.73
2019-05-03T23:32:30.243Z,20.40
2019-05-03T23:34:59.557Z,21.70
2019-05-03T23:37:29.169Z,24.30
2019-05-03T23:39:58.442Z,24.90
2019-05-03T23:42:27.763Z,21.70
2019-05-03T23:44:57.065Z,22.40
2019-05-03T23:47:38.205Z,21.70
2019-05-03T23:50:09.413Z,21.37
2019-05-03T23:52:41.208Z,24.07
2019-05-03T23:55:31.583Z,22.90
2019-05-03T23:58:01.082Z,24.73
